sensor_id;sensor_type;location;lat;lon;timestamp;pressure;altitude;pressure_sealevel;temperature;humidity
63399;BME280;49533;-34.520;150.798;2023-04-26T00:02:16;101828.38;;;20.97;59.31
63399;BME280;49533;-34.520;150.798;2023-04-26T00:04:43;101789.22;;;20.70;58.79
63399;BME280;49533;-34.520;150.798;2023-04-26T00:07:12;101738.94;;;20.52;58.98
63399;BME280;49533;-34.520;150.798;2023-04-26T00:09:41;101821.69;;;21.10;58.95
63399;BME280;49533;-34.520;150.798;2023-04-26T00:12:10;101819.94;;;21.18;59.38
63399;BME280;49533;-34.520;150.798;2023-04-26T00:14:37;101819.38;;;21.24;59.13
63399;BME280;49533;-34.520;150.798;2023-04-26T00:17:04;101799.09;;;21.20;59.48
63399;BME280;49533;-34.520;150.798;2023-04-26T00:19:32;101782.50;;;21.20;59.50
63399;BME280;49533;-34.520;150.798;2023-04-26T00:21:59;101809.66;;;21.43;59.50
63399;BME280;49533;-34.520;150.798;2023-04-26T00:24:26;101783.38;;;21.37;59.17
63399;BME280;49533;-34.520;150.798;2023-04-26T00:26:55;101790.97;;;21.52;59.41
63399;BME280;49533;-34.520;150.798;2023-04-26T00:29:22;101796.00;;;21.62;59.10
63399;BME280;49533;-34.520;150.798;2023-04-26T00:31:49;101745.38;;;21.34;59.26
63399;BME280;49533;-34.520;150.798;2023-04-26T00:34:16;101800.34;;;21.76;59.32
63399;BME280;49533;-34.520;150.798;2023-04-26T00:36:44;101804.38;;;21.78;59.05
63399;BME280;49533;-34.520;150.798;2023-04-26T00:39:11;101795.41;;;21.69;58.56
63399;BME280;49533;-34.520;150.798;2023-04-26T00:41:38;101763.94;;;21.45;58.61
63399;BME280;49533;-34.520;150.798;2023-04-26T00:44:05;101768.03;;;21.52;58.77
63399;BME280;49533;-34.520;150.798;2023-04-26T00:46:35;101760.91;;;21.51;58.70
63399;BME280;49533;-34.520;150.798;2023-04-26T00:49:02;101806.50;;;21.85;58.49
63399;BME280;49533;-34.520;150.798;2023-04-26T00:51:30;101758.69;;;21.56;58.46
63399;BME280;49533;-34.520;150.798;2023-04-26T00:53:58;101746.72;;;21.52;58.42
63399;BME280;49533;-34.520;150.798;2023-04-26T00:56:26;101775.88;;;21.78;58.74
63399;BME280;49533;-34.520;150.798;2023-04-26T00:58:53;101782.81;;;22.00;58.13
63399;BME280;49533;-34.520;150.798;2023-04-26T01:01:20;101783.72;;;22.04;58.35
63399;BME280;49533;-34.520;150.798;2023-04-26T01:03:47;101776.28;;;22.08;58.25
63399;BME280;49533;-34.520;150.798;2023-04-26T01:06:14;101770.50;;;22.13;57.93
63399;BME280;49533;-34.520;150.798;2023-04-26T01:08:43;101768.25;;;22.19;57.89
63399;BME280;49533;-34.520;150.798;2023-04-26T01:11:10;101727.00;;;21.98;57.90
63399;BME280;49533;-34.520;150.798;2023-04-26T01:13:38;101718.69;;;21.98;57.97
63399;BME280;49533;-34.520;150.798;2023-04-26T01:16:07;101727.72;;;22.10;57.88
63399;BME280;49533;-34.520;150.798;2023-04-26T01:18:34;101751.34;;;22.36;57.60
63399;BME280;49533;-34.520;150.798;2023-04-26T01:21:02;101752.69;;;22.42;57.81
63399;BME280;49533;-34.520;150.798;2023-04-26T01:23:30;101715.00;;;22.22;57.51
63399;BME280;49533;-34.520;150.798;2023-04-26T01:25:57;101731.06;;;22.32;57.20
63399;BME280;49533;-34.520;150.798;2023-04-26T01:28:24;101742.31;;;22.39;56.42
63399;BME280;49533;-34.520;150.798;2023-04-26T01:30:52;101734.72;;;22.36;56.23
63399;BME280;49533;-34.520;150.798;2023-04-26T01:33:19;101703.28;;;22.12;56.23
63399;BME280;49533;-34.520;150.798;2023-04-26T01:35:46;101697.72;;;22.12;56.22
63399;BME280;49533;-34.520;150.798;2023-04-26T01:38:13;101579.75;;;21.41;55.05
63399;BME280;49533;-34.520;150.798;2023-04-26T01:40:43;101716.41;;;22.31;54.53
63399;BME280;49533;-34.520;150.798;2023-04-26T01:43:11;101703.75;;;22.30;55.11
63399;BME280;49533;-34.520;150.798;2023-04-26T01:45:38;101639.44;;;21.89;54.49
63399;BME280;49533;-34.520;150.798;2023-04-26T01:48:06;101708.47;;;22.30;54.69
63399;BME280;49533;-34.520;150.798;2023-04-26T01:50:34;101705.25;;;22.28;55.63
63399;BME280;49533;-34.520;150.798;2023-04-26T01:53:01;101694.91;;;22.25;55.90
63399;BME280;49533;-34.520;150.798;2023-04-26T01:55:28;101678.09;;;22.18;55.81
63399;BME280;49533;-34.520;150.798;2023-04-26T01:57:55;101683.13;;;22.28;55.74
63399;BME280;49533;-34.520;150.798;2023-04-26T02:00:22;101682.03;;;22.32;55.84
63399;BME280;49533;-34.520;150.798;2023-04-26T02:02:53;101641.94;;;22.10;56.00
63399;BME280;49533;-34.520;150.798;2023-04-26T02:05:21;101654.97;;;22.26;56.17
63399;BME280;49533;-34.520;150.798;2023-04-26T02:07:48;101648.38;;;22.30;55.85
63399;BME280;49533;-34.520;150.798;2023-04-26T02:10:15;101662.56;;;22.45;56.04
63399;BME280;49533;-34.520;150.798;2023-04-26T02:12:43;101637.47;;;22.38;56.10
63399;BME280;49533;-34.520;150.798;2023-04-26T02:15:10;101642.50;;;22.51;56.21
63399;BME280;49533;-34.520;150.798;2023-04-26T02:17:38;101607.91;;;22.26;55.83
63399;BME280;49533;-34.520;150.798;2023-04-26T02:20:05;101635.88;;;22.56;55.87
63399;BME280;49533;-34.520;150.798;2023-04-26T02:22:35;101616.09;;;22.38;55.81
63399;BME280;49533;-34.520;150.798;2023-04-26T02:25:03;101601.81;;;22.36;55.82
63399;BME280;49533;-34.520;150.798;2023-04-26T02:27:30;101610.63;;;22.42;55.77
63399;BME280;49533;-34.520;150.798;2023-04-26T02:29:58;101624.81;;;22.56;55.45
63399;BME280;49533;-34.520;150.798;2023-04-26T02:32:25;101556.41;;;22.21;55.66
63399;BME280;49533;-34.520;150.798;2023-04-26T02:34:52;101576.72;;;22.45;55.69
63399;BME280;49533;-34.520;150.798;2023-04-26T02:37:20;101620.75;;;22.69;55.30
63399;BME280;49533;-34.520;150.798;2023-04-26T02:39:50;101566.28;;;22.38;55.39
63399;BME280;49533;-34.520;150.798;2023-04-26T02:42:18;101558.41;;;22.40;55.26
63399;BME280;49533;-34.520;150.798;2023-04-26T02:44:45;101605.00;;;22.73;55.26
63399;BME280;49533;-34.520;150.798;2023-04-26T02:47:12;101580.28;;;22.65;55.51
63399;BME280;49533;-34.520;150.798;2023-04-26T02:49:39;101591.34;;;22.65;55.86
63399;BME280;49533;-34.520;150.798;2023-04-26T02:52:07;101594.78;;;22.77;55.80
63399;BME280;49533;-34.520;150.798;2023-04-26T02:54:34;101550.69;;;22.49;55.57
63399;BME280;49533;-34.520;150.798;2023-04-26T02:57:01;101548.00;;;22.53;55.59
63399;BME280;49533;-34.520;150.798;2023-04-26T02:59:29;101532.25;;;22.38;55.97
63399;BME280;49533;-34.520;150.798;2023-04-26T03:01:56;101566.06;;;22.66;55.74
63399;BME280;49533;-34.520;150.798;2023-04-26T03:04:23;101582.84;;;22.73;55.97
63399;BME280;49533;-34.520;150.798;2023-04-26T03:06:51;101551.34;;;22.62;56.04
63399;BME280;49533;-34.520;150.798;2023-04-26T03:09:18;101550.53;;;22.62;55.60
63399;BME280;49533;-34.520;150.798;2023-04-26T03:11:45;101553.16;;;22.74;55.90
63399;BME280;49533;-34.520;150.798;2023-04-26T03:14:12;101552.00;;;22.75;55.90
63399;BME280;49533;-34.520;150.798;2023-04-26T03:16:41;101528.75;;;22.60;56.15
63399;BME280;49533;-34.520;150.798;2023-04-26T03:19:09;101575.63;;;22.88;56.22
63399;BME280;49533;-34.520;150.798;2023-04-26T03:21:36;101555.78;;;22.86;56.20
63399;BME280;49533;-34.520;150.798;2023-04-26T03:24:03;101537.00;;;22.76;56.36
63399;BME280;49533;-34.520;150.798;2023-04-26T03:26:30;101499.09;;;22.61;56.23
63399;BME280;49533;-34.520;150.798;2023-04-26T03:28:57;101540.19;;;22.78;56.06
63399;BME280;49533;-34.520;150.798;2023-04-26T03:31:24;101557.16;;;22.96;56.16
63399;BME280;49533;-34.520;150.798;2023-04-26T03:33:51;101532.38;;;22.84;56.09
63399;BME280;49533;-34.520;150.798;2023-04-26T03:36:19;101495.16;;;22.62;56.28
63399;BME280;49533;-34.520;150.798;2023-04-26T03:38:46;101554.03;;;22.97;56.20
63399;BME280;49533;-34.520;150.798;2023-04-26T03:41:13;101549.66;;;22.96;56.25
63399;BME280;49533;-34.520;150.798;2023-04-26T03:43:40;101553.31;;;23.00;56.01
63399;BME280;49533;-34.520;150.798;2023-04-26T03:46:08;101481.88;;;22.51;56.20
63399;BME280;49533;-34.520;150.798;2023-04-26T03:48:36;101523.56;;;22.78;56.18
63399;BME280;49533;-34.520;150.798;2023-04-26T03:51:03;101536.09;;;22.91;56.12
63399;BME280;49533;-34.520;150.798;2023-04-26T03:53:30;101546.97;;;23.00;56.01
63399;BME280;49533;-34.520;150.798;2023-04-26T03:55:57;101535.31;;;22.91;56.19
63399;BME280;49533;-34.520;150.798;2023-04-26T03:58:24;101535.78;;;22.96;55.82
63399;BME280;49533;-34.520;150.798;2023-04-26T04:00:55;101516.06;;;22.78;55.65
63399;BME280;49533;-34.520;150.798;2023-04-26T04:03:22;101560.63;;;23.09;55.67
63399;BME280;49533;-34.520;150.798;2023-04-26T04:05:49;101549.53;;;23.09;55.66
63399;BME280;49533;-34.520;150.798;2023-04-26T04:08:17;101511.81;;;22.85;55.88
63399;BME280;49533;-34.520;150.798;2023-04-26T04:10:44;101555.06;;;23.09;55.70
63399;BME280;49533;-34.520;150.798;2023-04-26T04:13:11;101557.84;;;23.09;55.83
63399;BME280;49533;-34.520;150.798;2023-04-26T04:15:38;101556.16;;;23.04;55.37
63399;BME280;49533;-34.520;150.798;2023-04-26T04:18:06;101555.88;;;23.09;55.17
63399;BME280;49533;-34.520;150.798;2023-04-26T04:20:34;101512.06;;;22.76;55.04
63399;BME280;49533;-34.520;150.798;2023-04-26T04:23:01;101547.75;;;23.00;54.80
63399;BME280;49533;-34.520;150.798;2023-04-26T04:25:31;101540.47;;;22.92;55.17
63399;BME280;49533;-34.520;150.798;2023-04-26T04:27:58;101486.78;;;22.58;55.14
63399;BME280;49533;-34.520;150.798;2023-04-26T04:30:27;101494.34;;;22.61;55.15
63399;BME280;49533;-34.520;150.798;2023-04-26T04:32:55;101524.00;;;22.80;54.94
63399;BME280;49533;-34.520;150.798;2023-04-26T04:35:24;101531.66;;;22.87;55.43
63399;BME280;49533;-34.520;150.798;2023-04-26T04:37:58;101541.25;;;22.93;55.56
63399;BME280;49533;-34.520;150.798;2023-04-26T04:40:27;101441.03;;;22.25;55.34
63399;BME280;49533;-34.520;150.798;2023-04-26T04:42:54;101459.09;;;22.39;54.77
63399;BME280;49533;-34.520;150.798;2023-04-26T04:45:21;101564.19;;;23.09;55.21
63399;BME280;49533;-34.520;150.798;2023-04-26T04:47:51;101570.50;;;23.10;55.09
63399;BME280;49533;-34.520;150.798;2023-04-26T04:50:20;101561.75;;;23.08;55.23
63399;BME280;49533;-34.520;150.798;2023-04-26T04:52:48;101564.97;;;23.10;55.26
63399;BME280;49533;-34.520;150.798;2023-04-26T04:55:16;101521.31;;;22.84;55.27
63399;BME280;49533;-34.520;150.798;2023-04-26T04:57:43;101565.84;;;23.14;55.05
63399;BME280;49533;-34.520;150.798;2023-04-26T05:00:10;101550.19;;;23.02;54.99
63399;BME280;49533;-34.520;150.798;2023-04-26T05:02:38;101566.22;;;23.12;54.70
63399;BME280;49533;-34.520;150.798;2023-04-26T05:05:05;101529.38;;;22.92;55.22
63399;BME280;49533;-34.520;150.798;2023-04-26T05:07:33;101560.22;;;23.10;55.03
63399;BME280;49533;-34.520;150.798;2023-04-26T05:10:00;101544.63;;;23.02;55.14
63399;BME280;49533;-34.520;150.798;2023-04-26T05:12:28;101547.59;;;23.13;55.19
63399;BME280;49533;-34.520;150.798;2023-04-26T05:14:55;101513.78;;;22.84;55.50
63399;BME280;49533;-34.520;150.798;2023-04-26T05:17:22;101545.88;;;23.05;55.24
63399;BME280;49533;-34.520;150.798;2023-04-26T05:19:49;101539.59;;;23.08;55.19
63399;BME280;49533;-34.520;150.798;2023-04-26T05:22:17;101481.88;;;22.71;55.27
63399;BME280;49533;-34.520;150.798;2023-04-26T05:24:46;101544.53;;;23.18;55.25
63399;BME280;49533;-34.520;150.798;2023-04-26T05:27:14;101549.28;;;23.17;55.37
63399;BME280;49533;-34.520;150.798;2023-04-26T05:29:41;101537.56;;;23.05;54.99
63399;BME280;49533;-34.520;150.798;2023-04-26T05:32:08;101546.56;;;23.21;55.08
63399;BME280;49533;-34.520;150.798;2023-04-26T05:34:36;101543.00;;;23.20;55.02
63399;BME280;49533;-34.520;150.798;2023-04-26T05:37:03;101517.72;;;23.03;55.22
63399;BME280;49533;-34.520;150.798;2023-04-26T05:39:31;101541.00;;;23.21;55.12
63399;BME280;49533;-34.520;150.798;2023-04-26T05:41:58;101542.63;;;23.22;55.02
63399;BME280;49533;-34.520;150.798;2023-04-26T05:44:25;101488.56;;;22.89;55.10
63399;BME280;49533;-34.520;150.798;2023-04-26T05:46:52;101540.28;;;23.24;54.89
63399;BME280;49533;-34.520;150.798;2023-04-26T05:49:19;101545.00;;;23.23;55.10
63399;BME280;49533;-34.520;150.798;2023-04-26T05:51:47;101468.16;;;22.78;55.10
63399;BME280;49533;-34.520;150.798;2023-04-26T05:54:15;101512.63;;;23.05;55.01
63399;BME280;49533;-34.520;150.798;2023-04-26T05:56:42;101533.91;;;23.23;54.87
63399;BME280;49533;-34.520;150.798;2023-04-26T05:59:09;101519.88;;;23.13;54.88
63399;BME280;49533;-34.520;150.798;2023-04-26T06:01:38;101524.06;;;23.03;55.18
63399;BME280;49533;-34.520;150.798;2023-04-26T06:04:05;101474.13;;;22.80;54.75
63399;BME280;49533;-34.520;150.798;2023-04-26T06:06:33;101490.09;;;22.87;54.82
63399;BME280;49533;-34.520;150.798;2023-04-26T06:09:00;101500.13;;;22.95;54.76
63399;BME280;49533;-34.520;150.798;2023-04-26T06:11:27;101516.56;;;23.04;54.67
63399;BME280;49533;-34.520;150.798;2023-04-26T06:13:54;101538.19;;;23.17;54.51
63399;BME280;49533;-34.520;150.798;2023-04-26T06:16:22;101541.75;;;23.18;54.32
63399;BME280;49533;-34.520;150.798;2023-04-26T06:18:49;101545.72;;;23.17;54.62
63399;BME280;49533;-34.520;150.798;2023-04-26T06:21:16;101513.63;;;22.96;54.55
63399;BME280;49533;-34.520;150.798;2023-04-26T06:23:43;101507.81;;;22.82;54.33
63399;BME280;49533;-34.520;150.798;2023-04-26T06:26:11;101547.84;;;23.04;54.36
63399;BME280;49533;-34.520;150.798;2023-04-26T06:28:39;101545.94;;;23.08;54.34
63399;BME280;49533;-34.520;150.798;2023-04-26T06:31:06;101552.66;;;23.07;54.35
63399;BME280;49533;-34.520;150.798;2023-04-26T06:33:33;101556.97;;;23.05;54.02
63399;BME280;49533;-34.520;150.798;2023-04-26T06:36:00;101549.09;;;23.07;53.90
63399;BME280;49533;-34.520;150.798;2023-04-26T06:38:27;101543.09;;;23.05;54.21
63399;BME280;49533;-34.520;150.798;2023-04-26T06:40:55;101541.88;;;23.02;54.09
63399;BME280;49533;-34.520;150.798;2023-04-26T06:43:22;101540.69;;;23.03;54.20
63399;BME280;49533;-34.520;150.798;2023-04-26T06:45:49;101546.63;;;23.02;54.11
63399;BME280;49533;-34.520;150.798;2023-04-26T06:48:16;101540.63;;;22.99;53.86
63399;BME280;49533;-34.520;150.798;2023-04-26T06:50:43;101534.66;;;22.97;54.08
63399;BME280;49533;-34.520;150.798;2023-04-26T06:53:11;101531.41;;;22.95;54.23
63399;BME280;49533;-34.520;150.798;2023-04-26T06:55:38;101532.59;;;22.94;53.93
63399;BME280;49533;-34.520;150.798;2023-04-26T06:58:06;101506.72;;;22.67;53.98
63399;BME280;49533;-34.520;150.798;2023-04-26T07:00:33;101529.81;;;22.94;54.12
63399;BME280;49533;-34.520;150.798;2023-04-26T07:03:01;101505.34;;;22.77;53.96
63399;BME280;49533;-34.520;150.798;2023-04-26T07:05:28;101530.47;;;22.88;54.05
63399;BME280;49533;-34.520;150.798;2023-04-26T07:07:55;101514.03;;;22.75;53.91
63399;BME280;49533;-34.520;150.798;2023-04-26T07:10:22;101513.09;;;22.68;54.25
63399;BME280;49533;-34.520;150.798;2023-04-26T07:12:51;101526.19;;;22.71;54.03
63399;BME280;49533;-34.520;150.798;2023-04-26T07:15:18;101489.34;;;22.47;54.62
63399;BME280;49533;-34.520;150.798;2023-04-26T07:17:45;101494.06;;;22.47;54.40
63399;BME280;49533;-34.520;150.798;2023-04-26T07:20:13;101486.34;;;22.36;54.42
63399;BME280;49533;-34.520;150.798;2023-04-26T07:22:45;101470.31;;;22.26;54.32
63399;BME280;49533;-34.520;150.798;2023-04-26T07:25:13;101497.69;;;22.31;54.82
63399;BME280;49533;-34.520;150.798;2023-04-26T07:27:40;101497.63;;;22.28;54.50
63399;BME280;49533;-34.520;150.798;2023-04-26T07:30:09;101489.44;;;22.15;54.81
63399;BME280;49533;-34.520;150.798;2023-04-26T07:32:36;101523.56;;;22.39;54.48
63399;BME280;49533;-34.520;150.798;2023-04-26T07:35:06;101493.81;;;22.17;54.64
63399;BME280;49533;-34.520;150.798;2023-04-26T07:37:33;101527.06;;;22.36;54.62
63399;BME280;49533;-34.520;150.798;2023-04-26T07:40:01;101524.97;;;22.29;55.13
63399;BME280;49533;-34.520;150.798;2023-04-26T07:42:28;101471.75;;;21.85;55.00
63399;BME280;49533;-34.520;150.798;2023-04-26T07:44:56;101470.34;;;21.91;55.12
63399;BME280;49533;-34.520;150.798;2023-04-26T07:47:23;101533.91;;;22.23;55.18
63399;BME280;49533;-34.520;150.798;2023-04-26T07:49:54;101526.41;;;22.23;55.58
63399;BME280;49533;-34.520;150.798;2023-04-26T07:52:21;101529.59;;;22.25;55.26
63399;BME280;49533;-34.520;150.798;2023-04-26T07:54:48;101528.38;;;22.23;55.46
63399;BME280;49533;-34.520;150.798;2023-04-26T07:57:15;101490.66;;;21.99;55.60
63399;BME280;49533;-34.520;150.798;2023-04-26T07:59:42;101503.78;;;22.02;55.46
63399;BME280;49533;-34.520;150.798;2023-04-26T08:02:09;101509.22;;;21.98;55.62
63399;BME280;49533;-34.520;150.798;2023-04-26T08:04:37;101538.81;;;22.13;55.96
63399;BME280;49533;-34.520;150.798;2023-04-26T08:07:04;101526.97;;;21.97;55.99
63399;BME280;49533;-34.520;150.798;2023-04-26T08:09:32;101520.81;;;21.88;55.85
63399;BME280;49533;-34.520;150.798;2023-04-26T08:11:59;101505.50;;;21.75;56.33
63399;BME280;49533;-34.520;150.798;2023-04-26T08:14:26;101552.78;;;22.01;56.15
63399;BME280;49533;-34.520;150.798;2023-04-26T08:16:55;101549.13;;;21.97;56.56
63399;BME280;49533;-34.520;150.798;2023-04-26T08:19:22;101444.72;;;21.27;56.24
63399;BME280;49533;-34.520;150.798;2023-04-26T08:21:49;101578.47;;;22.02;56.51
63399;BME280;49533;-34.520;150.798;2023-04-26T08:24:16;101553.59;;;21.86;56.42
63399;BME280;49533;-34.520;150.798;2023-04-26T08:26:43;101558.88;;;21.91;56.51
63399;BME280;49533;-34.520;150.798;2023-04-26T08:29:11;101570.63;;;21.88;56.97
63399;BME280;49533;-34.520;150.798;2023-04-26T08:31:38;101573.78;;;21.86;56.52
63399;BME280;49533;-34.520;150.798;2023-04-26T08:34:06;101525.50;;;21.52;56.99
63399;BME280;49533;-34.520;150.798;2023-04-26T08:36:37;101535.44;;;21.53;56.76
63399;BME280;49533;-34.520;150.798;2023-04-26T08:39:04;101580.03;;;21.83;56.97
63399;BME280;49533;-34.520;150.798;2023-04-26T08:41:41;101552.56;;;21.59;56.98
63399;BME280;49533;-34.520;150.798;2023-04-26T08:44:09;101582.09;;;21.70;56.97
63399;BME280;49533;-34.520;150.798;2023-04-26T08:46:52;101584.66;;;21.79;56.93
63399;BME280;49533;-34.520;150.798;2023-04-26T08:49:39;101586.19;;;21.77;57.42
63399;BME280;49533;-34.520;150.798;2023-04-26T08:52:10;101599.81;;;21.69;57.50
63399;BME280;49533;-34.520;150.798;2023-04-26T08:54:38;101582.44;;;21.53;57.51
63399;BME280;49533;-34.520;150.798;2023-04-26T08:57:06;101597.69;;;21.63;57.78
63399;BME280;49533;-34.520;150.798;2023-04-26T08:59:37;101545.28;;;21.22;57.57
63399;BME280;49533;-34.520;150.798;2023-04-26T09:02:06;101605.63;;;21.64;57.72
63399;BME280;49533;-34.520;150.798;2023-04-26T09:04:34;101604.56;;;21.69;57.82
63399;BME280;49533;-34.520;150.798;2023-04-26T09:07:04;101611.69;;;21.70;57.46
63399;BME280;49533;-34.520;150.798;2023-04-26T09:09:35;101613.13;;;21.64;57.78
63399;BME280;49533;-34.520;150.798;2023-04-26T09:12:04;101574.78;;;21.34;57.39
63399;BME280;49533;-34.520;150.798;2023-04-26T09:14:31;101622.03;;;21.57;57.84
63399;BME280;49533;-34.520;150.798;2023-04-26T09:16:58;101636.13;;;21.52;58.32
63399;BME280;49533;-34.520;150.798;2023-04-26T09:19:37;101598.69;;;21.26;58.10
63399;BME280;49533;-34.520;150.798;2023-04-26T09:22:04;101603.41;;;21.26;58.26
63399;BME280;49533;-34.520;150.798;2023-04-26T09:24:46;101641.56;;;21.48;58.58
63399;BME280;49533;-34.520;150.798;2023-04-26T09:27:14;101611.81;;;21.30;58.16
63399;BME280;49533;-34.520;150.798;2023-04-26T09:30:01;101639.31;;;21.38;58.25
63399;BME280;49533;-34.520;150.798;2023-04-26T09:32:43;101621.03;;;21.21;58.14
63399;BME280;49533;-34.520;150.798;2023-04-26T09:35:31;101613.47;;;21.18;58.32
63399;BME280;49533;-34.520;150.798;2023-04-26T09:38:05;101661.19;;;21.43;58.29
63399;BME280;49533;-34.520;150.798;2023-04-26T09:40:35;101651.41;;;21.34;58.31
63399;BME280;49533;-34.520;150.798;2023-04-26T09:43:10;101600.16;;;21.08;58.12
63399;BME280;49533;-34.520;150.798;2023-04-26T09:45:51;101650.81;;;21.40;58.23
63399;BME280;49533;-34.520;150.798;2023-04-26T09:48:21;101667.75;;;21.39;58.28
63399;BME280;49533;-34.520;150.798;2023-04-26T09:50:51;101658.56;;;21.35;58.47
63399;BME280;49533;-34.520;150.798;2023-04-26T09:53:32;101660.66;;;21.25;58.37
63399;BME280;49533;-34.520;150.798;2023-04-26T09:56:10;101628.69;;;21.12;58.61
63399;BME280;49533;-34.520;150.798;2023-04-26T09:58:54;101649.44;;;21.34;58.23
63399;BME280;49533;-34.520;150.798;2023-04-26T10:01:26;101659.91;;;21.41;57.79
63399;BME280;49533;-34.520;150.798;2023-04-26T10:03:55;101634.94;;;21.37;57.35
63399;BME280;49533;-34.520;150.798;2023-04-26T10:06:23;101638.97;;;21.40;57.23
63399;BME280;49533;-34.520;150.798;2023-04-26T10:08:54;101647.88;;;21.49;57.40
63399;BME280;49533;-34.520;150.798;2023-04-26T10:11:22;101651.09;;;21.51;57.08
63399;BME280;49533;-34.520;150.798;2023-04-26T10:13:49;101634.47;;;21.35;56.95
63399;BME280;49533;-34.520;150.798;2023-04-26T10:16:17;101627.91;;;21.40;56.94
63399;BME280;49533;-34.520;150.798;2023-04-26T10:18:44;101633.94;;;21.30;56.91
63399;BME280;49533;-34.520;150.798;2023-04-26T10:21:18;101619.84;;;21.35;56.70
63399;BME280;49533;-34.520;150.798;2023-04-26T10:23:48;101643.53;;;21.48;56.50
63399;BME280;49533;-34.520;150.798;2023-04-26T10:26:56;101629.41;;;21.37;56.64
63399;BME280;49533;-34.520;150.798;2023-04-26T10:29:20;101630.19;;;21.38;56.44
63399;BME280;49533;-34.520;150.798;2023-04-26T10:32:06;101668.69;;;21.59;56.86
63399;BME280;49533;-34.520;150.798;2023-04-26T10:34:35;101596.44;;;21.16;56.63
63399;BME280;49533;-34.520;150.798;2023-04-26T10:37:12;101662.38;;;21.58;56.47
63399;BME280;49533;-34.520;150.798;2023-04-26T10:39:41;101648.59;;;21.46;56.42
63399;BME280;49533;-34.520;150.798;2023-04-26T10:42:20;101666.28;;;21.57;56.38
63399;BME280;49533;-34.520;150.798;2023-04-26T10:44:51;101615.19;;;21.23;56.61
63399;BME280;49533;-34.520;150.798;2023-04-26T10:47:23;101636.44;;;21.35;56.62
63399;BME280;49533;-34.520;150.798;2023-04-26T10:49:50;101655.72;;;21.47;56.46
63399;BME280;49533;-34.520;150.798;2023-04-26T10:52:19;101647.88;;;21.49;56.65
63399;BME280;49533;-34.520;150.798;2023-04-26T10:54:53;101665.84;;;21.55;56.12
63399;BME280;49533;-34.520;150.798;2023-04-26T10:57:22;101611.50;;;21.19;56.13
63399;BME280;49533;-34.520;150.798;2023-04-26T11:02:55;101672.88;;;21.53;56.63
63399;BME280;49533;-34.520;150.798;2023-04-26T11:05:36;101655.72;;;21.47;56.21
63399;BME280;49533;-34.520;150.798;2023-04-26T11:08:06;101669.28;;;21.52;56.42
63399;BME280;49533;-34.520;150.798;2023-04-26T11:10:37;101658.22;;;21.52;56.21
63399;BME280;49533;-34.520;150.798;2023-04-26T11:13:04;101656.81;;;21.42;56.33
63399;BME280;49533;-34.520;150.798;2023-04-26T11:15:31;101656.97;;;21.49;56.34
63399;BME280;49533;-34.520;150.798;2023-04-26T11:18:03;101623.56;;;21.26;56.32
63399;BME280;49533;-34.520;150.798;2023-04-26T11:20:31;101604.03;;;21.19;56.23
63399;BME280;49533;-34.520;150.798;2023-04-26T11:22:59;101653.41;;;21.49;56.34
63399;BME280;49533;-34.520;150.798;2023-04-26T11:25:28;101625.25;;;21.31;56.58
63399;BME280;49533;-34.520;150.798;2023-04-26T11:27:58;101645.50;;;21.47;56.56
63399;BME280;49533;-34.520;150.798;2023-04-26T11:30:29;101650.66;;;21.49;56.23
63399;BME280;49533;-34.520;150.798;2023-04-26T11:32:58;101639.13;;;21.47;56.44
63399;BME280;49533;-34.520;150.798;2023-04-26T11:35:26;101610.91;;;21.25;56.05
63399;BME280;49533;-34.520;150.798;2023-04-26T11:37:58;101627.47;;;21.25;56.52
63399;BME280;49533;-34.520;150.798;2023-04-26T11:40:30;101602.78;;;21.17;56.58
63399;BME280;49533;-34.520;150.798;2023-04-26T11:43:00;101635.94;;;21.45;56.32
63399;BME280;49533;-34.520;150.798;2023-04-26T11:45:29;101593.25;;;21.14;56.78
63399;BME280;49533;-34.520;150.798;2023-04-26T11:47:57;101538.69;;;20.83;56.57
63399;BME280;49533;-34.520;150.798;2023-04-26T11:50:25;101615.84;;;21.32;56.74
63399;BME280;49533;-34.520;150.798;2023-04-26T11:52:55;101613.06;;;21.32;56.75
63399;BME280;49533;-34.520;150.798;2023-04-26T11:55:26;101606.97;;;21.26;56.53
63399;BME280;49533;-34.520;150.798;2023-04-26T11:57:54;101578.06;;;21.08;56.51
63399;BME280;49533;-34.520;150.798;2023-04-26T12:00:22;101593.66;;;21.16;56.78
63399;BME280;49533;-34.520;150.798;2023-04-26T12:02:50;101626.97;;;21.36;57.01
63399;BME280;49533;-34.520;150.798;2023-04-26T12:05:25;101621.44;;;21.36;57.12
63399;BME280;49533;-34.520;150.798;2023-04-26T12:07:55;101616.63;;;21.33;56.60
63399;BME280;49533;-34.520;150.798;2023-04-26T12:10:27;101579.69;;;21.09;56.82
63399;BME280;49533;-34.520;150.798;2023-04-26T12:12:57;101525.13;;;20.78;57.17
63399;BME280;49533;-34.520;150.798;2023-04-26T12:15:30;101602.28;;;21.27;57.16
63399;BME280;49533;-34.520;150.798;2023-04-26T12:18:05;101604.66;;;21.28;57.24
63399;BME280;49533;-34.520;150.798;2023-04-26T12:20:35;101602.59;;;21.25;57.13
63399;BME280;49533;-34.520;150.798;2023-04-26T12:23:11;101603.78;;;21.24;56.88
63399;BME280;49533;-34.520;150.798;2023-04-26T12:25:41;101594.22;;;21.22;57.05
63399;BME280;49533;-34.520;150.798;2023-04-26T12:28:17;101557.63;;;20.97;56.95
63399;BME280;49533;-34.520;150.798;2023-04-26T12:30:44;101560.84;;;20.99;57.40
63399;BME280;49533;-34.520;150.798;2023-04-26T12:33:11;101589.03;;;21.20;57.43